createdAt,value
2023-05-08T00:04:39.736Z,10.00
2023-05-08T00:09:39.613Z,9.90
2023-05-08T00:14:39.541Z,9.50
2023-05-08T00:19:39.468Z,10.50
2023-05-08T00:24:39.418Z,11.50
2023-05-08T00:29:39.344Z,10.50
2023-05-08T00:34:39.286Z,11.70
2023-05-08T00:39:39.246Z,11.20
2023-05-08T00:44:39.152Z,12.70
2023-05-08T00:49:39.080Z,11.40
2023-05-08T00:54:39.040Z,10.60
2023-05-08T00:59:38.943Z,12.40
2023-05-08T01:04:38.880Z,11.00
2023-05-08T01:09:38.815Z,11.00
2023-05-08T01:14:38.751Z,11.80
2023-05-08T01:19:38.680Z,13.30
2023-05-08T01:24:38.618Z,12.00
2023-05-08T01:29:38.580Z,12.30
2023-05-08T01:34:38.483Z,11.20
2023-05-08T01:39:38.404Z,12.40
2023-05-08T01:44:38.327Z,11.80
2023-05-08T01:49:38.267Z,11.90
2023-05-08T01:54:38.220Z,12.60
2023-05-08T01:59:38.127Z,12.40
2023-05-08T02:04:38.075Z,12.00
2023-05-08T02:09:38.009Z,11.20
2023-05-08T02:14:37.935Z,12.40
2023-05-08T02:19:37.858Z,11.40
2023-05-08T02:24:37.796Z,12.60
2023-05-08T02:29:37.722Z,11.90
2023-05-08T02:34:40.953Z,12.70
2023-05-08T02:39:38.590Z,11.00
2023-05-08T02:44:37.528Z,12.60
2023-05-08T02:49:37.451Z,11.40
2023-05-08T02:54:37.403Z,13.40
2023-05-08T02:59:37.316Z,11.80
2023-05-08T03:04:37.266Z,13.40
2023-05-08T03:09:37.184Z,13.30
2023-05-08T03:14:37.129Z,13.70
2023-05-08T03:19:37.055Z,13.70
2023-05-08T03:24:37.003Z,12.60
2023-05-08T03:29:36.929Z,13.60
2023-05-08T03:34:36.863Z,14.20
2023-05-08T03:39:36.801Z,13.70
2023-05-08T03:44:36.736Z,13.90
2023-05-08T03:49:36.665Z,14.30
2023-05-08T03:54:36.600Z,12.60
2023-05-08T03:59:36.543Z,13.10
2023-05-08T04:04:36.478Z,12.60
2023-05-08T04:09:36.407Z,13.10
2023-05-08T04:14:36.355Z,13.20
2023-05-08T04:19:36.294Z,12.50
2023-05-08T04:24:36.211Z,13.70
2023-05-08T04:29:36.154Z,11.70
2023-05-08T04:34:36.083Z,12.30
2023-05-08T04:39:36.024Z,10.40
2023-05-08T04:44:35.951Z,9.50
2023-05-08T04:49:35.886Z,7.60
2023-05-08T04:54:35.832Z,7.10
2023-05-08T04:59:35.749Z,5.50
2023-05-08T05:04:35.684Z,5.70
2023-05-08T05:09:35.616Z,6.50
2023-05-08T05:14:35.547Z,5.20
2023-05-08T05:19:35.480Z,4.70
2023-05-08T05:24:35.417Z,5.40
2023-05-08T05:29:35.340Z,4.80
2023-05-08T05:34:35.310Z,3.90
2023-05-08T05:39:35.230Z,5.00
2023-05-08T05:44:35.153Z,3.90
2023-05-08T05:49:35.094Z,4.40
2023-05-08T05:54:35.035Z,4.10
2023-05-08T05:59:34.986Z,4.30
2023-05-08T06:04:35.036Z,3.60
2023-05-08T06:09:34.903Z,4.40
2023-05-08T06:14:34.864Z,3.80
2023-05-08T06:19:34.760Z,4.10
2023-05-08T06:24:34.711Z,3.80
2023-05-08T06:29:34.666Z,3.90
2023-05-08T06:34:34.623Z,3.40
2023-05-08T06:39:34.507Z,4.30
2023-05-08T06:44:34.466Z,3.40
2023-05-08T06:49:34.391Z,2.80
2023-05-08T06:54:34.335Z,3.50
2023-05-08T06:59:34.267Z,4.30
2023-05-08T07:04:34.298Z,3.50
2023-05-08T07:09:34.137Z,4.10
2023-05-08T07:14:34.078Z,3.60
2023-05-08T07:19:34.019Z,3.60
2023-05-08T07:24:33.965Z,3.30
2023-05-08T07:29:33.892Z,2.70
2023-05-08T07:34:33.827Z,3.20
2023-05-08T07:39:33.760Z,3.30
2023-05-08T07:44:40.614Z,3.70
2023-05-08T07:49:34.604Z,3.70
2023-05-08T07:54:33.562Z,4.40
2023-05-08T07:59:33.491Z,2.50
2023-05-08T08:04:33.496Z,3.80
2023-05-08T08:09:33.350Z,3.80
2023-05-08T08:14:33.304Z,2.10
2023-05-08T08:19:33.225Z,3.10
2023-05-08T08:24:33.231Z,3.10
2023-05-08T08:29:33.064Z,1.60
2023-05-08T08:34:33.026Z,2.20
2023-05-08T08:39:32.955Z,2.00
2023-05-08T08:44:32.893Z,2.40
2023-05-08T08:49:32.820Z,2.60
2023-05-08T08:54:32.735Z,2.40
2023-05-08T08:59:32.692Z,2.10
2023-05-08T09:04:32.646Z,2.10
2023-05-08T09:09:32.558Z,2.20
2023-05-08T09:14:32.556Z,2.70
2023-05-08T09:19:32.370Z,1.80
2023-05-08T09:24:32.344Z,2.80
2023-05-08T09:29:32.505Z,2.70
2023-05-08T09:34:32.630Z,3.00
2023-05-08T09:39:32.108Z,2.30
2023-05-08T09:44:32.531Z,1.70
2023-05-08T09:49:31.977Z,2.00
2023-05-08T09:54:31.942Z,2.50
2023-05-08T09:59:34.101Z,1.90
2023-05-08T10:04:31.781Z,2.50
2023-05-08T10:09:42.572Z,2.60
2023-05-08T10:14:32.661Z,2.20
2023-05-08T10:19:31.572Z,2.70
2023-05-08T10:24:31.537Z,1.90
2023-05-08T10:29:31.451Z,3.40
2023-05-08T10:34:31.384Z,2.70
2023-05-08T10:39:31.323Z,2.50
2023-05-08T10:44:31.253Z,2.40
2023-05-08T10:49:31.889Z,2.60
2023-05-08T10:54:31.196Z,2.80
2023-05-08T10:59:31.025Z,2.20
2023-05-08T11:04:31.114Z,2.70
2023-05-08T11:09:30.883Z,4.60
2023-05-08T11:14:30.826Z,2.80
2023-05-08T11:19:30.772Z,3.50
2023-05-08T11:24:30.685Z,4.10
2023-05-08T11:29:30.625Z,2.70
2023-05-08T11:34:30.546Z,1.80
2023-05-08T11:39:30.475Z,2.70
2023-05-08T11:44:30.414Z,3.30
2023-05-08T11:49:30.364Z,3.30
2023-05-08T11:54:30.287Z,3.00
2023-05-08T11:59:30.214Z,2.90
2023-05-08T12:04:30.246Z,2.20
2023-05-08T12:09:30.106Z,2.70
2023-05-08T12:14:30.068Z,1.90
2023-05-08T12:19:30.015Z,2.80
2023-05-08T12:24:29.888Z,2.90
2023-05-08T12:29:29.813Z,2.40
2023-05-08T12:34:29.775Z,3.30
2023-05-08T12:39:29.673Z,3.70
2023-05-08T12:44:29.610Z,2.70
2023-05-08T12:49:29.536Z,2.30
2023-05-08T12:54:29.475Z,3.20
2023-05-08T12:59:29.414Z,1.90
2023-05-08T13:04:29.455Z,2.10
2023-05-08T13:09:29.278Z,2.80
2023-05-08T13:14:29.215Z,2.70
2023-05-08T13:19:29.145Z,3.10
2023-05-08T13:24:29.071Z,3.10
2023-05-08T13:29:29.025Z,2.40
2023-05-08T13:34:28.954Z,2.50
2023-05-08T13:39:28.882Z,3.50
2023-05-08T13:44:28.845Z,4.30
2023-05-08T13:49:28.741Z,3.50
2023-05-08T13:54:28.676Z,3.60
2023-05-08T13:59:28.622Z,4.40
2023-05-08T14:04:28.543Z,3.40
2023-05-08T14:09:28.464Z,4.40
2023-05-08T14:14:28.388Z,3.50
2023-05-08T14:19:28.330Z,3.30
2023-05-08T14:24:28.268Z,4.20
2023-05-08T14:29:28.200Z,6.20
2023-05-08T14:34:28.159Z,4.30
2023-05-08T14:39:28.068Z,3.40
2023-05-08T14:44:28.041Z,2.70
2023-05-08T14:54:27.975Z,4.10
2023-05-08T14:59:27.826Z,4.50
2023-05-08T15:04:27.727Z,4.60
2023-05-08T15:09:27.770Z,4.20
2023-05-08T15:14:27.615Z,3.70
2023-05-08T15:19:27.537Z,3.50
2023-05-08T15:24:27.462Z,2.50
2023-05-08T15:29:27.404Z,4.30
2023-05-08T15:34:29.494Z,3.30
2023-05-08T15:39:28.267Z,3.90
2023-05-08T15:44:37.704Z,5.20
2023-05-08T15:49:28.117Z,4.40
2023-05-08T15:54:27.056Z,3.70
2023-05-08T15:59:27.009Z,3.60
2023-05-08T16:04:26.919Z,3.40
2023-05-08T16:09:26.861Z,4.50
2023-05-08T16:14:26.793Z,4.80
2023-05-08T16:19:26.730Z,3.80
2023-05-08T16:24:26.670Z,5.00
2023-05-08T16:29:26.604Z,4.50
2023-05-08T16:34:26.525Z,3.70
2023-05-08T16:39:26.528Z,4.80
2023-05-08T16:44:26.392Z,5.00
2023-05-08T16:49:26.329Z,4.20
2023-05-08T16:54:26.265Z,2.90
2023-05-08T16:59:26.198Z,2.70
2023-05-08T17:04:26.131Z,3.60
2023-05-08T17:09:26.051Z,5.10
2023-05-08T17:14:25.993Z,3.60
2023-05-08T17:19:25.940Z,4.80
2023-05-08T17:24:25.848Z,4.70
2023-05-08T17:29:25.834Z,4.90
2023-05-08T17:34:25.784Z,3.10
2023-05-08T17:39:25.694Z,3.50
2023-05-08T17:44:25.593Z,4.80
2023-05-08T17:49:25.534Z,6.00
2023-05-08T17:54:25.486Z,5.80
2023-05-08T17:59:25.391Z,5.80
2023-05-08T18:04:25.328Z,4.60
2023-05-08T18:09:25.262Z,4.80
2023-05-08T18:14:25.188Z,6.00
2023-05-08T18:19:25.139Z,5.30
2023-05-08T18:24:25.048Z,6.60
2023-05-08T18:29:24.974Z,6.10
2023-05-08T18:34:24.915Z,6.50
2023-05-08T18:39:24.877Z,5.50
2023-05-08T18:44:24.816Z,5.40
2023-05-08T18:49:24.730Z,5.90
2023-05-08T18:54:24.647Z,4.90
2023-05-08T18:59:24.576Z,6.00
2023-05-08T19:04:24.531Z,5.10
2023-05-08T19:09:24.446Z,5.40
2023-05-08T19:14:24.371Z,10.20
2023-05-08T19:19:24.321Z,7.60
2023-05-08T19:24:24.249Z,8.00
2023-05-08T19:29:24.179Z,8.30
2023-05-08T19:34:24.194Z,6.80
2023-05-08T19:39:24.054Z,9.30
2023-05-08T19:44:23.994Z,7.30
2023-05-08T19:49:23.959Z,6.70
2023-05-08T19:54:23.890Z,8.10
2023-05-08T19:59:23.855Z,6.50
2023-05-08T20:04:23.773Z,6.80
2023-05-08T20:09:23.720Z,7.50
2023-05-08T20:14:23.620Z,8.60
2023-05-08T20:19:24.716Z,8.90
2023-05-08T20:24:23.464Z,7.60
2023-05-08T20:29:23.440Z,8.90
2023-05-08T20:34:23.366Z,10.10
2023-05-08T20:39:23.301Z,9.30
2023-05-08T20:44:23.230Z,11.20
2023-05-08T20:49:23.157Z,9.10
2023-05-08T20:54:23.069Z,10.40
2023-05-08T20:59:23.012Z,9.90
2023-05-08T21:04:23.045Z,8.80
2023-05-08T21:09:22.848Z,9.10
2023-05-08T21:14:22.771Z,8.80
2023-05-08T21:19:22.708Z,11.00
2023-05-08T21:24:22.629Z,9.80
2023-05-08T21:29:22.585Z,9.60
2023-05-08T21:34:22.508Z,6.80
2023-05-08T21:39:22.458Z,7.90
2023-05-08T21:44:22.371Z,8.00
2023-05-08T21:49:22.307Z,8.10
2023-05-08T21:54:22.240Z,7.50
2023-05-08T21:59:22.167Z,8.40
2023-05-08T22:04:22.096Z,6.50
2023-05-08T22:09:22.038Z,8.10
2023-05-08T22:14:21.961Z,7.40
2023-05-08T22:19:21.901Z,7.40
2023-05-08T22:24:21.841Z,7.40
2023-05-08T22:29:21.764Z,8.30
2023-05-08T22:34:21.710Z,9.50
2023-05-08T22:39:21.623Z,7.40
2023-05-08T22:44:21.558Z,6.00
2023-05-08T22:49:21.493Z,8.40
2023-05-08T22:54:21.433Z,7.80
2023-05-08T22:59:21.356Z,8.00
2023-05-08T23:04:21.347Z,7.20
2023-05-08T23:09:21.229Z,5.50
2023-05-08T23:14:21.164Z,5.40
2023-05-08T23:19:21.094Z,8.60
2023-05-08T23:24:21.019Z,5.30
2023-05-08T23:29:20.959Z,7.00
2023-05-08T23:34:20.877Z,5.70
2023-05-08T23:39:20.818Z,5.90
2023-05-08T23:44:20.765Z,5.80
2023-05-08T23:49:20.683Z,5.20
2023-05-08T23:54:20.616Z,6.00
2023-05-08T23:59:20.581Z,5.30
